Arrantzale — EBVT — position and weather

sailwx.info

Track history (hours):
 
Tides and Currents Weather Stations Pressure Air Temp Water Temp Dewpoint Dewpoint Depression Visibility Wind Speed Wind Dir Waves Ship Positions

Arrantzale

Last reported at 2014-Jul-24 15:27 UTC. Time now 2014-Jul-24 20:03 UTC.
Position N 43°23' W 001°47'.

Length 32 m.

Type: Fishing. MMSI: 224065290.

Date/timePositionNaut miles runAvg speedWind from/ knotsBaromVisibWave heightAir tempDewpointWater temp
2014-Jul-24 15:27N 43°23' W 001°47'0 0.0
2014-Jul-24 14:29N 43°23' W 001°47'0 0.0
2014-Jul-24 13:33N 43°23' W 001°47'0 0.0
2014-Jul-24 12:26N 43°23' W 001°47'0 0.0
2014-Jul-24 10:09N 43°23' W 001°47'0 0.0
2014-Jul-24 09:31N 43°23' W 001°47'0 0.0
2014-Jul-24 08:32N 43°23' W 001°47'0 0.0
2014-Jul-24 04:26N 43°23' W 001°47'0 0.0
2014-Jul-24 03:13N 43°23' W 001°47'0 0.0
2014-Jul-24 02:29N 43°23' W 001°47'0 0.0
2014-Jul-24 01:27N 43°23' W 001°47'0 0.0
2014-Jul-24 00:33N 43°23' W 001°47'0 0.0
2014-Jul-23 17:29N 43°23' W 001°47'0 0.0
2014-Jul-23 16:30N 43°23' W 001°47'0 0.0
2014-Jul-23 15:33N 43°23' W 001°47'0 0.0
2014-Jul-23 14:32N 43°23' W 001°47'0 0.0
2014-Jul-23 13:33N 43°23' W 001°47'0 0.0
2014-Jul-23 12:33N 43°23' W 001°47'0 0.0
2014-Jul-23 11:33N 43°23' W 001°47'0 0.0
2014-Jul-23 10:33N 43°23' W 001°47'0 0.0
2014-Jul-23 09:33N 43°23' W 001°47'0 0.0
2014-Jul-23 08:27N 43°23' W 001°47'0 0.0
2014-Jul-23 07:26N 43°23' W 001°47'0 0.0
2014-Jul-23 06:32N 43°23' W 001°47'0 0.0
2014-Jul-23 05:32N 43°23' W 001°47'0 0.0
2014-Jul-23 04:32N 43°23' W 001°47'0 0.0
2014-Jul-23 03:27N 43°23' W 001°47'0 0.0
2014-Jul-23 01:08N 43°23' W 001°47'0 0.0
2014-Jul-23 00:26N 43°23' W 001°47'0 0.0
2014-Jul-22 23:29N 43°23' W 001°47'0 0.0
2014-Jul-22 22:33N 43°23' W 001°47'0 0.1
2014-Jul-22 21:33N 43°23' W 001°48'0 0.0
2014-Jul-22 20:33N 43°23' W 001°48'165 4.1
2014-Jul-21 04:29N 43°40' W 005°34'8 7.8
2014-Jul-21 03:29N 43°34' W 005°41'1 1.0
2014-Jul-21 02:26N 43°33' W 005°42'0 0.0
2014-Jul-21 01:33N 43°33' W 005°42'0 0.0
2014-Jul-21 00:29N 43°33' W 005°42'0 0.0
2014-Jul-20 23:32N 43°33' W 005°42'0 0.0
2014-Jul-20 22:31N 43°33' W 005°42'0 0.0
2014-Jul-20 21:33N 43°33' W 005°42'0 0.0
2014-Jul-20 20:18N 43°33' W 005°42'0 0.0
2014-Jul-20 19:30N 43°33' W 005°42'0 0.0
2014-Jul-20 18:33N 43°33' W 005°42'0 0.0
2014-Jul-20 17:33N 43°33' W 005°42'0 0.0
2014-Jul-20 16:33N 43°33' W 005°42'0 0.0
2014-Jul-20 15:33N 43°33' W 005°42'0 0.0
2014-Jul-20 14:32N 43°33' W 005°42'0 0.0
2014-Jul-20 13:33N 43°33' W 005°42'0 0.0
2014-Jul-20 12:32N 43°33' W 005°42'0 0.0
2014-Jul-20 11:33N 43°33' W 005°42'0 0.0
2014-Jul-20 10:32N 43°33' W 005°42'0 0.0
2014-Jul-20 09:31N 43°33' W 005°42'2 1.1
2014-Jul-20 07:33N 43°35' W 005°40'3 0.6
2014-Jul-20 02:03N 43°37' W 005°44'4 7.5
2014-Jul-20 01:32N 43°41' W 005°42'8 1.6
2014-Jul-19 20:21N 43°43' W 005°54'3 0.3
2014-Jul-19 10:11N 43°43' W 005°58'4 6.2
2014-Jul-19 09:29N 43°42' W 005°52'7 7.8
2014-Jul-19 08:33N 43°36' W 005°45'0 0.0
2014-Jul-19 07:29N 43°36' W 005°45'0 0.0
2014-Jul-19 06:27N 43°36' W 005°45'2 2.7
2014-Jul-19 05:33N 43°39' W 005°46'9 1.6
2014-Jul-19 00:10N 43°47' W 005°48'4 2.6
2014-Jul-18 22:29N 43°46' W 005°42'0 0.3
2014-Jul-18 21:32N 43°46' W 005°42'109 3.8
2014-Jul-17 16:25N 45°35' W 005°47'2 2.2
2014-Jul-17 15:33N 45°35' W 005°50'3 2.8
2014-Jul-17 14:30N 45°36' W 005°54'7 7.7
2014-Jul-17 13:34N 45°42' W 006°00'  
2014-Jul-14 16:32N 43°37' W 005°45'  
Track history (hours):
 
Tides and Currents Weather Stations Pressure Air Temp Water Temp Dewpoint Dewpoint Depression Visibility Wind Speed Wind Dir Waves Ship Positions

Arrantzale

Last reported at 2014-Jul-24 15:27 UTC. Time now 2014-Jul-24 20:03 UTC.
Position N 43°23' W 001°47'.

Length 32 m.

Type: Fishing. MMSI: 224065290.

Date/timePositionNaut miles runAvg speedWind from/ knotsBaromVisibWave heightAir tempDewpointWater temp
2014-Jul-24 15:27N 43°23' W 001°47'0 0.0
2014-Jul-24 14:29N 43°23' W 001°47'0 0.0
2014-Jul-24 13:33N 43°23' W 001°47'0 0.0
2014-Jul-24 12:26N 43°23' W 001°47'0 0.0
2014-Jul-24 10:09N 43°23' W 001°47'0 0.0
2014-Jul-24 09:31N 43°23' W 001°47'0 0.0
2014-Jul-24 08:32N 43°23' W 001°47'0 0.0
2014-Jul-24 04:26N 43°23' W 001°47'0 0.0
2014-Jul-24 03:13N 43°23' W 001°47'0 0.0
2014-Jul-24 02:29N 43°23' W 001°47'0 0.0
2014-Jul-24 01:27N 43°23' W 001°47'0 0.0
2014-Jul-24 00:33N 43°23' W 001°47'0 0.0
2014-Jul-23 17:29N 43°23' W 001°47'0 0.0
2014-Jul-23 16:30N 43°23' W 001°47'0 0.0
2014-Jul-23 15:33N 43°23' W 001°47'0 0.0
2014-Jul-23 14:32N 43°23' W 001°47'0 0.0
2014-Jul-23 13:33N 43°23' W 001°47'0 0.0
2014-Jul-23 12:33N 43°23' W 001°47'0 0.0
2014-Jul-23 11:33N 43°23' W 001°47'0 0.0
2014-Jul-23 10:33N 43°23' W 001°47'0 0.0
2014-Jul-23 09:33N 43°23' W 001°47'0 0.0
2014-Jul-23 08:27N 43°23' W 001°47'0 0.0
2014-Jul-23 07:26N 43°23' W 001°47'0 0.0
2014-Jul-23 06:32N 43°23' W 001°47'0 0.0
2014-Jul-23 05:32N 43°23' W 001°47'0 0.0
2014-Jul-23 04:32N 43°23' W 001°47'0 0.0
2014-Jul-23 03:27N 43°23' W 001°47'0 0.0
2014-Jul-23 01:08N 43°23' W 001°47'0 0.0
2014-Jul-23 00:26N 43°23' W 001°47'0 0.0
2014-Jul-22 23:29N 43°23' W 001°47'0 0.0
2014-Jul-22 22:33N 43°23' W 001°47'0 0.1
2014-Jul-22 21:33N 43°23' W 001°48'0 0.0
2014-Jul-22 20:33N 43°23' W 001°48'165 4.1
2014-Jul-21 04:29N 43°40' W 005°34'8 7.8
2014-Jul-21 03:29N 43°34' W 005°41'1 1.0
2014-Jul-21 02:26N 43°33' W 005°42'0 0.0
2014-Jul-21 01:33N 43°33' W 005°42'0 0.0
2014-Jul-21 00:29N 43°33' W 005°42'0 0.0
2014-Jul-20 23:32N 43°33' W 005°42'0 0.0
2014-Jul-20 22:31N 43°33' W 005°42'0 0.0
2014-Jul-20 21:33N 43°33' W 005°42'0 0.0
2014-Jul-20 20:18N 43°33' W 005°42'0 0.0
2014-Jul-20 19:30N 43°33' W 005°42'0 0.0
2014-Jul-20 18:33N 43°33' W 005°42'0 0.0
2014-Jul-20 17:33N 43°33' W 005°42'0 0.0
2014-Jul-20 16:33N 43°33' W 005°42'0 0.0
2014-Jul-20 15:33N 43°33' W 005°42'0 0.0
2014-Jul-20 14:32N 43°33' W 005°42'0 0.0
2014-Jul-20 13:33N 43°33' W 005°42'0 0.0
2014-Jul-20 12:32N 43°33' W 005°42'0 0.0
2014-Jul-20 11:33N 43°33' W 005°42'0 0.0
2014-Jul-20 10:32N 43°33' W 005°42'0 0.0
2014-Jul-20 09:31N 43°33' W 005°42'2 1.1
2014-Jul-20 07:33N 43°35' W 005°40'3 0.6
2014-Jul-20 02:03N 43°37' W 005°44'4 7.5
2014-Jul-20 01:32N 43°41' W 005°42'8 1.6
2014-Jul-19 20:21N 43°43' W 005°54'3 0.3
2014-Jul-19 10:11N 43°43' W 005°58'4 6.2
2014-Jul-19 09:29N 43°42' W 005°52'7 7.8
2014-Jul-19 08:33N 43°36' W 005°45'0 0.0
2014-Jul-19 07:29N 43°36' W 005°45'0 0.0
2014-Jul-19 06:27N 43°36' W 005°45'2 2.7
2014-Jul-19 05:33N 43°39' W 005°46'9 1.6
2014-Jul-19 00:10N 43°47' W 005°48'4 2.6
2014-Jul-18 22:29N 43°46' W 005°42'0 0.3
2014-Jul-18 21:32N 43°46' W 005°42'109 3.8
2014-Jul-17 16:25N 45°35' W 005°47'2 2.2
2014-Jul-17 15:33N 45°35' W 005°50'3 2.8
2014-Jul-17 14:30N 45°36' W 005°54'7 7.7
2014-Jul-17 13:34N 45°42' W 006°00'  
2014-Jul-14 16:32N 43°37' W 005°45'  

Dump ship's entire track history